PWSweather.com
Personal Weather Stations
Station Observations
SWHWX01
St AppolinardFR 38160

St AppolinardFR 38160

Lat: 45.191, Lon: 5.268

Elevation: 1460

Station Type: Davis Vantage Pro2 Plus

www.sweetwebhome.com/?show=wxindex

High Low Average
Temperature 64.6°F18.1°C 51.1°F10.6°C 56.6°F13.7°C
Dew Point 50.8°F10.4°C 44.4°F6.9°C 47.1°F8.4°C
Winds 12.8 mph 20.6 kmh 0.1 mph 0.2 kmh 5.0 mph SW8.0 kmh SW
Wind Gusts 20.0 mph32.2 kmh 1.0 mph1.6 kmh 9.0 mph14.5 kmh
Humidity 80% 57% 71%
Pressure 30.08 in1018.6 mb 29.88 in1011.9 mb -
Precipitation 0.00 in0.0 mm - -
Hour Temp Dew Point Humidity Winds Wind Gusts Pressure Precip Precip Rate Daily Precip Total
12:00 AM 54.2°F12.3°C 47.5°F8.6°C 78% 3.1 mph NE5.0 kmh NE 4.0 mph6.4 kmh 29.89 in1012.2 mb - 0.00 in0.0 mm 0.00 in0.0 mm
12:30 AM 53.4°F11.9°C 46.8°F8.2°C 78% 3.6 mph NE5.8 kmh NE 5.0 mph8.0 kmh 29.89 in1012.2 mb - 0.00 in0.0 mm 0.00 in0.0 mm
01:00 AM 54.0°F12.2°C 47.3°F8.5°C 78% 0.1 mph NE0.2 kmh NE 1.0 mph1.6 kmh 29.90 in1012.5 mb - 0.00 in0.0 mm 0.00 in0.0 mm
01:30 AM 53.0°F11.7°C 47.0°F8.3°C 80% 2.7 mph NE4.3 kmh NE 4.0 mph6.4 kmh 29.90 in1012.5 mb - 0.00 in0.0 mm 0.00 in0.0 mm
02:00 AM 53.6°F12.0°C 46.6°F8.1°C 77% 4.9 mph NNW7.9 kmh NNW 8.0 mph12.9 kmh 29.90 in1012.5 mb - 0.00 in0.0 mm 0.00 in0.0 mm
02:30 AM 53.0°F11.7°C 46.0°F7.8°C 77% 4.7 mph NNW7.6 kmh NNW 7.0 mph11.3 kmh 29.89 in1012.2 mb - 0.00 in0.0 mm 0.00 in0.0 mm
03:00 AM 52.3°F11.3°C 45.6°F7.6°C 78% 3.8 mph N6.1 kmh N 5.0 mph8.0 kmh 29.89 in1012.2 mb - 0.00 in0.0 mm 0.00 in0.0 mm
03:30 AM 52.8°F11.6°C 44.7°F7.1°C 74% 3.6 mph NNE5.8 kmh NNE 9.0 mph14.5 kmh 29.89 in1012.2 mb - 0.00 in0.0 mm 0.00 in0.0 mm
04:00 AM 52.8°F11.6°C 44.4°F6.9°C 73% 3.5 mph N5.6 kmh N 8.0 mph12.9 kmh 29.88 in1011.9 mb - 0.00 in0.0 mm 0.00 in0.0 mm
04:30 AM 52.4°F11.3°C 44.4°F6.9°C 74% 2.4 mph N3.9 kmh N 7.0 mph11.3 kmh 29.88 in1011.9 mb - 0.00 in0.0 mm 0.00 in0.0 mm
05:00 AM 52.3°F11.3°C 45.0°F7.2°C 76% 5.3 mph NE8.5 kmh NE 9.0 mph14.5 kmh 29.88 in1011.9 mb - 0.00 in0.0 mm 0.00 in0.0 mm
05:30 AM 51.7°F10.9°C 44.7°F7.1°C 77% 2.7 mph NNW4.3 kmh NNW 5.0 mph8.0 kmh 29.88 in1011.9 mb - 0.00 in0.0 mm 0.00 in0.0 mm
06:00 AM 51.1°F10.6°C 44.8°F7.1°C 79% 4.1 mph NNW6.6 kmh NNW 5.0 mph8.0 kmh 29.88 in1011.9 mb - 0.00 in0.0 mm 0.00 in0.0 mm
06:30 AM 51.1°F10.6°C 45.1°F7.3°C 80% 11.7 mph N18.8 kmh N 18.0 mph29.0 kmh 29.89 in1012.2 mb - 0.00 in0.0 mm 0.00 in0.0 mm
07:00 AM 51.4°F10.8°C 45.1°F7.3°C 79% 12.8 mph NNW20.6 kmh NNW 20.0 mph32.2 kmh 29.90 in1012.5 mb - 0.00 in0.0 mm 0.00 in0.0 mm
07:30 AM 51.7°F10.9°C 45.7°F7.6°C 80% 1.4 mph N2.3 kmh N 9.0 mph14.5 kmh 29.92 in1013.2 mb - 0.00 in0.0 mm 0.00 in0.0 mm
08:00 AM 52.6°F11.4°C 46.3°F7.9°C 79% 3.5 mph NW5.6 kmh NW 6.0 mph9.7 kmh 29.93 in1013.5 mb - 0.00 in0.0 mm 0.00 in0.0 mm
08:30 AM 54.2°F12.3°C 47.5°F8.6°C 78% 5.3 mph NNE8.5 kmh NNE 11.0 mph17.7 kmh 29.94 in1013.9 mb - 0.00 in0.0 mm 0.00 in0.0 mm
09:00 AM 54.8°F12.7°C 47.0°F8.3°C 75% 4.2 mph NE6.8 kmh NE 8.0 mph12.9 kmh 29.93 in1013.5 mb - 0.00 in0.0 mm 0.00 in0.0 mm
09:30 AM 55.9°F13.3°C 48.1°F8.9°C 75% 5.9 mph N9.5 kmh N 10.0 mph16.1 kmh 29.93 in1013.5 mb - 0.00 in0.0 mm 0.00 in0.0 mm
10:00 AM 57.0°F13.9°C 48.8°F9.3°C 74% 2.1 mph NNE3.4 kmh NNE 4.0 mph6.4 kmh 29.94 in1013.9 mb - 0.00 in0.0 mm 0.00 in0.0 mm
10:30 AM 56.1°F13.4°C 47.9°F8.8°C 74% 6.6 mph NE10.6 kmh NE 11.0 mph17.7 kmh 29.95 in1014.2 mb - 0.00 in0.0 mm 0.00 in0.0 mm
11:00 AM 57.0°F13.9°C 48.8°F9.3°C 74% 6.2 mph NNW10.0 kmh NNW 11.0 mph17.7 kmh 29.95 in1014.2 mb - 0.00 in0.0 mm 0.00 in0.0 mm
11:30 AM 57.3°F14.1°C 48.7°F9.3°C 73% 4.4 mph NW7.1 kmh NW 6.0 mph9.7 kmh 29.96 in1014.6 mb - 0.00 in0.0 mm 0.00 in0.0 mm
12:00 PM 58.4°F14.7°C 48.7°F9.3°C 70% 6.9 mph NE11.1 kmh NE 11.0 mph17.7 kmh 29.96 in1014.6 mb - 0.00 in0.0 mm 0.00 in0.0 mm
12:30 PM 58.8°F14.9°C 49.1°F9.5°C 70% 4.5 mph N7.2 kmh N 13.0 mph20.9 kmh 29.96 in1014.6 mb - 0.00 in0.0 mm 0.00 in0.0 mm
01:00 PM 61.6°F16.4°C 49.3°F9.6°C 64% 5.0 mph NNW8.0 kmh NNW 11.0 mph17.7 kmh 29.95 in1014.2 mb - 0.00 in0.0 mm 0.00 in0.0 mm
01:30 PM 60.7°F15.9°C 48.4°F9.1°C 64% 3.4 mph NNW5.5 kmh NNW 6.0 mph9.7 kmh 29.96 in1014.6 mb - 0.00 in0.0 mm 0.00 in0.0 mm
02:00 PM 61.3°F16.3°C 49.4°F9.7°C 65% 10.7 mph NW17.2 kmh NW 18.0 mph29.0 kmh 29.96 in1014.6 mb - 0.00 in0.0 mm 0.00 in0.0 mm
02:30 PM 62.3°F16.8°C 50.8°F10.4°C 66% 2.4 mph NNW3.9 kmh NNW 3.0 mph4.8 kmh 29.95 in1014.2 mb - 0.00 in0.0 mm 0.00 in0.0 mm
03:00 PM 64.6°F18.1°C 50.4°F10.2°C 60% 4.0 mph N6.4 kmh N 6.0 mph9.7 kmh 29.96 in1014.6 mb - 0.00 in0.0 mm 0.00 in0.0 mm
03:30 PM 63.1°F17.3°C 49.9°F9.9°C 62% 5.4 mph N8.7 kmh N 11.0 mph17.7 kmh 29.96 in1014.6 mb - 0.00 in0.0 mm 0.00 in0.0 mm
04:00 PM 62.7°F17.1°C 49.5°F9.7°C 62% 4.7 mph N7.6 kmh N 13.0 mph20.9 kmh 29.96 in1014.6 mb - 0.00 in0.0 mm 0.00 in0.0 mm
04:30 PM 63.7°F17.6°C 49.1°F9.5°C 59% 3.5 mph NNW5.6 kmh NNW 10.0 mph16.1 kmh 29.97 in1014.9 mb - 0.00 in0.0 mm 0.00 in0.0 mm
05:00 PM 63.5°F17.5°C 48.0°F8.9°C 57% 6.0 mph N9.7 kmh N 12.0 mph19.3 kmh 29.97 in1014.9 mb - 0.00 in0.0 mm 0.00 in0.0 mm
05:30 PM 61.4°F16.3°C 47.4°F8.6°C 60% 5.9 mph NW9.5 kmh NW 10.0 mph16.1 kmh 29.97 in1014.9 mb - 0.00 in0.0 mm 0.00 in0.0 mm
06:00 PM 61.3°F16.3°C 47.3°F8.5°C 60% 9.9 mph NNE15.9 kmh NNE 16.0 mph25.7 kmh 29.98 in1015.2 mb - 0.00 in0.0 mm 0.00 in0.0 mm
06:30 PM 60.7°F15.9°C 46.7°F8.2°C 60% 7.1 mph NNE11.4 kmh NNE 12.0 mph19.3 kmh 29.98 in1015.2 mb - 0.00 in0.0 mm 0.00 in0.0 mm
07:00 PM 59.5°F15.3°C 46.5°F8.1°C 62% 7.7 mph N12.4 kmh N 12.0 mph19.3 kmh 29.99 in1015.6 mb - 0.00 in0.0 mm 0.00 in0.0 mm
07:30 PM 58.6°F14.8°C 46.5°F8.1°C 64% 4.6 mph N7.4 kmh N 10.0 mph16.1 kmh 30.00 in1015.9 mb - 0.00 in0.0 mm 0.00 in0.0 mm
08:00 PM 57.9°F14.4°C 46.6°F8.1°C 66% 5.5 mph NNW8.9 kmh NNW 8.0 mph12.9 kmh 30.01 in1016.3 mb - 0.00 in0.0 mm 0.00 in0.0 mm
08:30 PM 57.4°F14.1°C 46.5°F8.1°C 67% 6.5 mph NNW10.5 kmh NNW 9.0 mph14.5 kmh 30.02 in1016.6 mb - 0.00 in0.0 mm 0.00 in0.0 mm
09:00 PM 56.8°F13.8°C 46.4°F8.0°C 68% 4.6 mph NW7.4 kmh NW 13.0 mph20.9 kmh 30.04 in1017.3 mb - 0.00 in0.0 mm 0.00 in0.0 mm
09:30 PM 56.5°F13.6°C 46.4°F8.0°C 69% 6.6 mph N10.6 kmh N 9.0 mph14.5 kmh 30.05 in1017.6 mb - 0.00 in0.0 mm 0.00 in0.0 mm
10:00 PM 56.3°F13.5°C 46.3°F7.9°C 69% 8.6 mph N13.8 kmh N 12.0 mph19.3 kmh 30.05 in1017.6 mb - 0.00 in0.0 mm 0.00 in0.0 mm
10:30 PM 56.2°F13.4°C 46.2°F7.9°C 69% 6.6 mph NNW10.6 kmh NNW 12.0 mph19.3 kmh 30.06 in1017.9 mb - 0.00 in0.0 mm 0.00 in0.0 mm
11:00 PM 55.4°F13.0°C 46.1°F7.8°C 71% 7.3 mph N11.7 kmh N 10.0 mph16.1 kmh 30.07 in1018.3 mb - 0.00 in0.0 mm 0.00 in0.0 mm
11:30 PM 54.7°F12.6°C 45.8°F7.7°C 72% 6.3 mph N10.1 kmh N 13.0 mph20.9 kmh 30.08 in1018.6 mb - 0.00 in0.0 mm 0.00 in0.0 mm